Řízení letového provozu České republiky  
Aktualizace dat:  22.09.2019 09:55:26 UTC English version
   METEO Zobrazení stránky:  22.09.2019 09:56:23 UTC  
vysvětlivky
METAR EDDB 220950Z 13010KT 100V160 CAVOK 21/07 Q1015 NOSIG=
METAR EDDC 220950Z 15014KT 120V180 CAVOK 19/06 Q1014 TEMPO 15015G25KT=
METAR EDDE 220950Z VRB03KT CAVOK 19/07 Q1013 NOSIG=
METAR EDDF 220950Z 05004KT 350V120 CAVOK 20/08 Q1012 NOSIG=
METAR EDDM 220950Z 10003KT 050V140 CAVOK 15/09 Q1013 NOSIG=
METAR EDDN 220950Z 10007KT 040V130 CAVOK 19/07 Q1013 NOSIG=
METAR EDDP 220950Z 11006KT 080V150 CAVOK 20/07 Q1014 NOSIG=
METAR EDDT 220950Z 15012KT 110V170 CAVOK 21/06 Q1015 NOSIG=
METAR EDQM 220920Z 14006KT 100V200 CAVOK 17/06 Q1015=
METAR EPBY 220930Z 26004KT 190V320 CAVOK 18/09 Q1017=
METAR EPGD 220930Z 29009KT CAVOK 17/11 Q1016=
METAR EPKK 220930Z 22003KT 170V270 CAVOK 17/07 Q1019=
METAR EPKT 220930Z 20008KT 150V230 CAVOK 17/05 Q1019=
METAR EPLL 220930Z 19003KT 140V230 CAVOK 17/07 Q1018=
METAR EPPO 220930Z 17006KT CAVOK 20/07 Q1017=
METAR EPRZ 220930Z 22007KT 170V250 CAVOK 17/06 Q1020=
METAR EPWA 220930Z 28005KT 240V310 CAVOK 18/10 Q1018 NOSIG=
METAR EPWR 220930Z 17010KT CAVOK 19/06 Q1017=
METAR LHBP 220930Z 14009KT 090V160 CAVOK 19/05 Q1021 NOSIG=
METAR LHSM 220915Z AUTO 15008KT 130V190 CAVOK 18/06 Q1019=
METAR LKBC 220930Z AUTO 11006KT 080V140 CAVOK 15/05 Q1016=
METAR LKCV 220900Z 12011KT CAVOK 17/05 Q1017 NOSIG RMK BLU BLU=
METAR LKKB 220900Z 08009KT CAVOK 15/06 Q1017 NOSIG RMK BLU BLU=
METAR LKKU NIL
METAR LKKV 220930Z 04007KT 360V070 CAVOK 15/05 Q1016 RMK REG QNH 1013=
METAR LKLN 221000Z AUTO 06006KT 310V090 CAVOK 17/08 Q1015=
METAR LKMT 220930Z 20010KT 160V230 CAVOK 18/05 Q1019 NOSIG RMK REG QNH 1013=
SPECI LKNA 220939Z /////KT 3000 VV/// 15/// Q1017 RMK YLO=
METAR LKPD 220900Z 09009KT 070V130 CAVOK 18/05 Q1017 NOSIG RMK BLU BLU=
METAR LKPJ 220900Z AUTO 10006KT 070V140 CAVOK ///// Q////=
METAR LKPR 220930Z 12007KT 070V160 CAVOK 15/05 Q1016 NOSIG RMK REG QNH 1013=
METAR LKTB 220930Z 12014KT 090V170 CAVOK 17/03 Q1018 NOSIG RMK REG QNH 1013=
METAR LKVO 220900Z 09010KT CAVOK 16/05 Q1017=
METAR LOWI 220950Z 29009KT 9999 FEW110 BKN200 16/11 Q1015 NOSIG=
METAR LOWL 220950Z 11006KT CAVOK 16/07 Q1014 NOSIG=
METAR LOWS 220950Z 32004KT CAVOK 16/11 Q1013 NOSIG=
METAR LOWW 220950Z 14017KT CAVOK 18/03 Q1017 NOSIG=
METAR LZIB 220930Z 13015KT CAVOK 19/04 Q1018 NOSIG=
METAR LZKZ 220930Z 19007KT 160V240 CAVOK 17/05 Q1022 NOSIG=
METAR LZMC NIL
METAR LZPP 220930Z 14015KT CAVOK 18/03 Q1019=
METAR LZSL 220930Z VRB01KT CAVOK 16/07 Q1021=
METAR LZTT 220930Z 13004KT 080V160 CAVOK 15/06 Q1020 NOSIG=
METAR LZZI 220930Z VRB01KT CAVOK 16/06 Q1020=